createdAt,value
2022-12-12T00:00:18.240Z,12.17
2022-12-12T00:02:45.068Z,10.18
2022-12-12T00:05:15.667Z,14.35
2022-12-12T00:07:42.735Z,11.45
2022-12-12T00:10:12.069Z,12.38
2022-12-12T00:12:38.911Z,12.07
2022-12-12T00:15:06.464Z,12.73
2022-12-12T00:17:33.168Z,10.25
2022-12-12T00:20:00.624Z,13.82
2022-12-12T00:22:27.367Z,12.63
2022-12-12T00:24:54.103Z,15.80
2022-12-12T00:27:20.914Z,12.65
2022-12-12T00:29:53.141Z,15.35
2022-12-12T00:32:20.394Z,12.68
2022-12-12T00:34:47.115Z,13.95
2022-12-12T00:37:13.974Z,14.27
2022-12-12T00:39:42.391Z,12.75
2022-12-12T00:42:09.323Z,16.05
2022-12-12T00:44:36.170Z,13.85
2022-12-12T00:47:03.121Z,15.40
2022-12-12T00:49:30.283Z,12.50
2022-12-12T00:51:57.090Z,19.75
2022-12-12T00:54:23.960Z,15.07
2022-12-12T00:56:50.986Z,18.15
2022-12-12T00:59:19.655Z,16.52
2022-12-12T01:01:47.180Z,19.13
2022-12-12T01:04:14.133Z,18.60
2022-12-12T01:06:40.971Z,18.20
2022-12-12T01:09:07.740Z,14.40
2022-12-12T01:11:34.683Z,16.02
2022-12-12T01:14:01.796Z,14.17
2022-12-12T01:16:30.083Z,16.10
2022-12-12T01:18:56.975Z,19.00
2022-12-12T01:21:24.264Z,17.75
2022-12-12T01:23:51.012Z,22.75
2022-12-12T01:26:21.532Z,17.70
2022-12-12T01:28:48.667Z,14.02
2022-12-12T01:31:16.207Z,15.85
2022-12-12T01:33:46.101Z,14.13
2022-12-12T01:36:19.441Z,16.23
2022-12-12T01:38:47.732Z,18.67
2022-12-12T01:41:15.357Z,19.85
2022-12-12T01:43:42.799Z,20.25
2022-12-12T01:46:29.616Z,19.92
2022-12-12T01:49:01.831Z,17.23
2022-12-12T01:51:29.711Z,16.50
2022-12-12T01:54:06.738Z,15.95
2022-12-12T01:56:34.146Z,15.13
2022-12-12T01:59:03.764Z,19.92
2022-12-12T02:01:31.495Z,21.13
2022-12-12T02:03:59.615Z,22.03
2022-12-12T02:06:28.134Z,18.13
2022-12-12T02:08:59.558Z,14.82
2022-12-12T02:11:30.476Z,14.82
2022-12-12T02:13:59.167Z,16.40
2022-12-12T02:16:44.651Z,16.60
2022-12-12T02:19:49.979Z,19.50
2022-12-12T02:22:54.766Z,13.20
2022-12-12T02:25:33.428Z,16.05
2022-12-12T02:28:02.782Z,16.75
2022-12-12T02:30:46.309Z,15.23
2022-12-12T02:33:39.807Z,15.20
2022-12-12T02:36:24.151Z,16.13
2022-12-12T02:39:17.017Z,13.43
2022-12-12T02:41:50.631Z,14.05
2022-12-12T02:44:33.329Z,14.83
2022-12-12T02:47:16.147Z,16.70
2022-12-12T02:50:00.846Z,15.77
2022-12-12T02:52:28.146Z,15.15
2022-12-12T02:54:55.282Z,16.00
2022-12-12T02:57:24.821Z,17.37
2022-12-12T03:00:02.200Z,14.02
2022-12-12T03:02:45.172Z,11.45
2022-12-12T03:05:59.662Z,16.15
2022-12-12T03:08:44.348Z,15.02
2022-12-12T03:11:18.171Z,14.03
2022-12-12T03:13:56.083Z,15.40
2022-12-12T03:16:56.372Z,14.38
2022-12-12T03:19:28.903Z,12.75
2022-12-12T03:22:32.962Z,15.98
2022-12-12T03:25:34.603Z,13.57
2022-12-12T03:28:10.368Z,13.15
2022-12-12T03:30:46.741Z,12.10
2022-12-12T03:33:26.043Z,14.32
2022-12-12T03:36:21.977Z,14.75
2022-12-12T03:38:57.359Z,11.30
2022-12-12T03:41:42.018Z,14.07
2022-12-12T03:44:31.158Z,12.02
2022-12-12T03:47:14.201Z,12.25
2022-12-12T03:49:48.751Z,12.88
2022-12-12T03:52:55.925Z,12.27
2022-12-12T03:55:38.918Z,13.50
2022-12-12T03:58:16.478Z,14.32
2022-12-12T04:00:45.939Z,12.93
2022-12-12T04:03:26.357Z,11.95
2022-12-12T04:06:23.536Z,12.50
2022-12-12T04:09:09.958Z,10.60
2022-12-12T04:12:08.436Z,11.68
2022-12-12T04:14:44.042Z,13.65
2022-12-12T04:17:14.581Z,12.65
2022-12-12T04:20:15.065Z,11.43
2022-12-12T04:23:07.419Z,11.50
2022-12-12T04:26:32.582Z,17.13
2022-12-12T04:29:15.242Z,11.88
2022-12-12T04:31:56.007Z,11.38
2022-12-12T04:34:33.969Z,17.10
2022-12-12T04:37:04.066Z,14.30
2022-12-12T04:39:32.171Z,16.17
2022-12-12T04:42:00.523Z,16.90
2022-12-12T04:44:32.114Z,18.25
2022-12-12T04:47:01.126Z,16.80
2022-12-12T04:49:33.379Z,16.77
2022-12-12T04:52:05.547Z,17.90
2022-12-12T04:54:39.842Z,17.40
2022-12-12T04:57:10.064Z,19.67
2022-12-12T04:59:37.223Z,18.63
2022-12-12T05:02:30.271Z,15.88
2022-12-12T05:05:16.110Z,16.83
2022-12-12T05:08:12.017Z,17.08
2022-12-12T05:10:45.910Z,16.67
2022-12-12T05:13:18.788Z,16.33
2022-12-12T05:15:48.064Z,17.00
2022-12-12T05:18:14.746Z,20.90
2022-12-12T05:20:41.604Z,20.70
2022-12-12T05:23:08.386Z,20.00
2022-12-12T05:25:35.149Z,20.37
2022-12-12T05:28:01.912Z,22.40
2022-12-12T05:30:28.866Z,21.83
2022-12-12T05:32:55.648Z,22.65
2022-12-12T05:35:22.616Z,16.77
2022-12-12T05:37:52.146Z,21.73
2022-12-12T05:40:20.084Z,21.23
2022-12-12T05:42:48.196Z,17.63
2022-12-12T05:45:15.660Z,25.27
2022-12-12T05:47:42.632Z,24.38
2022-12-12T05:50:10.383Z,20.53
2022-12-12T05:52:37.230Z,21.13
2022-12-12T05:55:05.191Z,25.50
2022-12-12T05:57:32.067Z,25.40
2022-12-12T05:59:58.802Z,24.90
2022-12-12T06:02:25.553Z,23.10
2022-12-12T06:04:52.326Z,27.88
2022-12-12T06:07:19.102Z,18.92
2022-12-12T06:09:45.900Z,20.88
2022-12-12T06:12:12.750Z,23.55
2022-12-12T06:14:39.622Z,24.87
2022-12-12T06:17:06.474Z,21.48
2022-12-12T06:19:33.491Z,24.88
2022-12-12T06:22:00.955Z,22.38
2022-12-12T06:24:27.782Z,24.13
2022-12-12T06:26:54.440Z,20.73
2022-12-12T06:29:21.226Z,31.13
2022-12-12T06:31:48.122Z,22.58
2022-12-12T06:34:14.900Z,25.30
2022-12-12T06:36:42.119Z,20.05
2022-12-12T06:39:09.775Z,21.20
2022-12-12T06:41:36.867Z,21.58
2022-12-12T06:44:04.359Z,23.80
2022-12-12T06:46:31.837Z,19.42
2022-12-12T06:48:58.895Z,23.17
2022-12-12T06:51:29.137Z,19.27
2022-12-12T06:53:56.771Z,17.98
2022-12-12T06:56:26.188Z,22.42
2022-12-12T06:58:54.717Z,23.08
2022-12-12T07:01:23.471Z,20.40
2022-12-12T07:03:51.871Z,21.23
2022-12-12T07:06:20.947Z,25.33
2022-12-12T07:08:48.455Z,23.60
2022-12-12T07:11:18.004Z,25.70
2022-12-12T07:13:44.833Z,25.80
2022-12-12T07:16:12.380Z,23.20
2022-12-12T07:18:39.335Z,25.30
2022-12-12T07:21:08.658Z,26.73
2022-12-12T07:23:36.089Z,26.13
2022-12-12T07:26:09.186Z,27.10
2022-12-12T07:28:38.163Z,24.63
2022-12-12T07:31:10.952Z,28.52
2022-12-12T07:33:43.751Z,30.48
2022-12-12T07:36:13.887Z,29.98
2022-12-12T07:38:40.839Z,25.20
2022-12-12T07:41:14.133Z,26.10
2022-12-12T07:43:44.171Z,27.08
2022-12-12T07:46:15.012Z,25.38
2022-12-12T07:48:41.849Z,26.58
2022-12-12T07:51:08.966Z,22.60
2022-12-12T07:53:35.687Z,25.53
2022-12-12T07:56:06.590Z,24.58
2022-12-12T07:58:34.265Z,24.48
2022-12-12T08:01:01.110Z,25.33
2022-12-12T08:03:28.054Z,28.17
2022-12-12T08:05:54.914Z,23.93
2022-12-12T08:08:21.735Z,23.90
2022-12-12T08:10:48.656Z,25.88
2022-12-12T08:13:15.337Z,25.42
2022-12-12T08:15:43.101Z,22.52
2022-12-12T08:18:09.906Z,25.07
2022-12-12T08:20:39.686Z,19.25
2022-12-12T08:23:07.085Z,21.10
2022-12-12T08:25:35.606Z,22.40
2022-12-12T08:28:02.498Z,23.33
2022-12-12T08:30:29.300Z,22.53
2022-12-12T08:32:56.041Z,26.65
2022-12-12T08:35:22.779Z,22.80
2022-12-12T08:37:49.537Z,21.20
2022-12-12T08:40:16.497Z,20.38
2022-12-12T08:42:43.769Z,21.80
2022-12-12T08:45:10.961Z,19.05
2022-12-12T08:47:37.998Z,12.23
2022-12-12T08:50:05.915Z,18.65
2022-12-12T08:52:32.710Z,16.58
2022-12-12T08:55:00.335Z,19.50
2022-12-12T08:57:27.198Z,17.85
2022-12-12T08:59:53.975Z,16.95
2022-12-12T09:02:20.885Z,19.25
2022-12-12T09:04:47.749Z,16.42
2022-12-12T09:07:14.520Z,17.73
2022-12-12T09:09:41.182Z,15.30
2022-12-12T09:12:08.328Z,15.38
2022-12-12T09:14:35.004Z,13.50
2022-12-12T09:17:01.706Z,14.55
2022-12-12T09:19:28.470Z,16.97
2022-12-12T09:21:55.279Z,15.02
2022-12-12T09:24:42.676Z,11.50
2022-12-12T09:27:09.436Z,16.95
2022-12-12T09:29:36.155Z,13.05
2022-12-12T09:32:06.691Z,15.82
2022-12-12T09:34:34.365Z,15.52
2022-12-12T09:37:01.794Z,13.93
2022-12-12T09:39:28.509Z,15.60
2022-12-12T09:41:55.505Z,14.50
2022-12-12T09:44:26.160Z,18.98
2022-12-12T09:46:57.266Z,15.88
2022-12-12T09:49:48.418Z,15.07
2022-12-12T09:52:31.453Z,16.33
2022-12-12T09:55:06.690Z,12.02
2022-12-12T09:57:51.486Z,12.60
2022-12-12T10:00:18.830Z,12.98
2022-12-12T10:03:11.355Z,13.73
2022-12-12T10:05:51.201Z,14.30
2022-12-12T10:08:58.428Z,9.73
2022-12-12T10:11:52.859Z,13.13
2022-12-12T10:14:36.805Z,21.63
2022-12-12T10:17:08.477Z,13.60
2022-12-12T10:19:46.338Z,15.60
2022-12-12T10:22:28.789Z,16.85
2022-12-12T10:25:03.853Z,14.45
2022-12-12T10:27:30.734Z,14.75
2022-12-12T10:30:06.955Z,11.53
2022-12-12T10:33:03.223Z,17.38
2022-12-12T10:35:41.714Z,16.25
2022-12-12T10:38:33.043Z,16.73
2022-12-12T10:41:10.462Z,19.45
2022-12-12T10:43:49.267Z,14.37
2022-12-12T10:46:18.952Z,17.65
2022-12-12T10:48:48.555Z,13.20
2022-12-12T10:51:18.784Z,17.90
2022-12-12T10:53:46.942Z,15.68
2022-12-12T10:56:23.601Z,19.00
2022-12-12T10:58:58.681Z,13.23
2022-12-12T11:02:07.971Z,15.63
2022-12-12T11:04:20.379Z,15.98
2022-12-12T11:06:50.898Z,15.73
2022-12-12T11:09:19.314Z,15.03
2022-12-12T11:12:02.949Z,18.08
2022-12-12T11:14:48.107Z,16.85
2022-12-12T11:17:34.705Z,16.45
2022-12-12T11:20:06.032Z,17.27
2022-12-12T11:22:33.476Z,17.43
2022-12-12T11:25:00.727Z,18.27
2022-12-12T11:27:41.438Z,21.05
2022-12-12T11:30:23.687Z,18.17
2022-12-12T11:32:54.860Z,19.88
2022-12-12T11:35:36.142Z,19.17
2022-12-12T11:38:07.010Z,20.92
2022-12-12T11:40:37.342Z,18.85
2022-12-12T11:43:26.694Z,19.13
2022-12-12T11:46:08.255Z,16.92
2022-12-12T11:48:38.884Z,17.27
2022-12-12T11:51:06.782Z,25.42
2022-12-12T11:53:39.926Z,17.52
2022-12-12T11:56:38.884Z,20.58
2022-12-12T11:59:08.647Z,23.45
2022-12-12T12:02:04.037Z,20.67
2022-12-12T12:05:09.085Z,19.20
2022-12-12T12:07:57.769Z,17.25
2022-12-12T12:10:43.999Z,17.40
2022-12-12T12:13:50.830Z,17.55
2022-12-12T12:16:20.369Z,19.10
2022-12-12T12:18:57.392Z,20.10
2022-12-12T12:21:43.321Z,20.60
2022-12-12T12:24:14.305Z,20.83
2022-12-12T12:26:53.215Z,24.08
2022-12-12T12:29:35.452Z,20.30
2022-12-12T12:32:40.280Z,22.30
2022-12-12T12:35:24.300Z,18.90
2022-12-12T12:37:53.870Z,19.35
2022-12-12T12:40:30.267Z,25.92
2022-12-12T12:43:27.104Z,20.80
2022-12-12T12:46:01.062Z,19.08
2022-12-12T12:48:30.405Z,21.40
2022-12-12T12:51:25.212Z,15.13
2022-12-12T12:54:00.015Z,14.75
2022-12-12T12:56:30.687Z,14.20
2022-12-12T12:59:02.435Z,14.38
2022-12-12T13:01:43.957Z,17.60
2022-12-12T13:04:10.676Z,18.27
2022-12-12T13:06:42.367Z,12.70
2022-12-12T13:09:24.251Z,15.47
2022-12-12T13:11:55.936Z,15.35
2022-12-12T13:14:51.449Z,16.05
2022-12-12T13:17:52.145Z,17.75
2022-12-12T13:20:22.632Z,13.05
2022-12-12T13:22:58.269Z,14.13
2022-12-12T13:25:52.058Z,18.58
2022-12-12T13:28:23.539Z,16.05
2022-12-12T13:31:13.207Z,17.15
2022-12-12T13:34:09.272Z,17.15
2022-12-12T13:36:39.931Z,15.03
2022-12-12T13:39:09.102Z,17.95
2022-12-12T13:42:12.465Z,15.63
2022-12-12T13:45:22.518Z,14.57
2022-12-12T13:47:50.864Z,12.75
2022-12-12T13:50:22.810Z,16.37
2022-12-12T13:53:07.782Z,14.15
2022-12-12T13:55:35.836Z,15.15
2022-12-12T13:58:09.227Z,16.08
2022-12-12T14:00:40.637Z,20.45
2022-12-12T14:03:10.071Z,16.67
2022-12-12T14:05:41.622Z,17.17
2022-12-12T14:08:11.305Z,14.38
2022-12-12T14:10:49.663Z,25.33
2022-12-12T14:13:22.017Z,20.17
2022-12-12T14:16:02.676Z,21.10
2022-12-12T14:18:49.218Z,18.10
2022-12-12T14:21:18.700Z,16.90
2022-12-12T14:23:50.669Z,19.23
2022-12-12T14:26:29.272Z,19.90
2022-12-12T14:29:17.763Z,16.13
2022-12-12T14:31:56.262Z,15.05
2022-12-12T14:34:47.483Z,17.08
2022-12-12T14:37:48.388Z,14.50
2022-12-12T14:40:25.467Z,19.88
2022-12-12T14:43:16.432Z,19.60
2022-12-12T14:45:51.594Z,18.25
2022-12-12T14:48:35.796Z,20.58
2022-12-12T14:51:25.864Z,18.42
2022-12-12T14:53:58.692Z,16.20
2022-12-12T14:56:28.462Z,16.17
2022-12-12T14:58:55.186Z,18.02
2022-12-12T15:01:56.375Z,21.42
2022-12-12T15:04:32.443Z,19.30
2022-12-12T15:07:04.044Z,22.05
2022-12-12T15:09:35.892Z,17.13
2022-12-12T15:12:12.428Z,17.77
2022-12-12T15:14:41.426Z,17.95
2022-12-12T15:17:15.006Z,58.88
2022-12-12T15:20:14.511Z,56.90
2022-12-12T15:23:01.929Z,57.30
2022-12-12T15:25:52.804Z,32.42
2022-12-12T15:28:21.682Z,24.95
2022-12-12T15:30:53.629Z,23.38
2022-12-12T15:33:23.138Z,28.80
2022-12-12T15:35:55.108Z,17.63
2022-12-12T15:38:25.093Z,19.13
2022-12-12T15:40:54.240Z,20.80
2022-12-12T15:43:24.270Z,22.42
2022-12-12T15:45:56.025Z,26.23
2022-12-12T15:48:24.119Z,27.20
2022-12-12T15:50:53.571Z,23.70
2022-12-12T15:53:27.760Z,25.95
2022-12-12T15:55:57.740Z,30.30
2022-12-12T15:58:30.242Z,27.40
2022-12-12T16:01:21.796Z,26.40
2022-12-12T16:04:02.626Z,29.65
2022-12-12T16:06:34.003Z,27.08
2022-12-12T16:09:21.995Z,27.77
2022-12-12T16:11:57.814Z,24.20
2022-12-12T16:14:33.930Z,24.07
2022-12-12T16:17:06.780Z,22.58
2022-12-12T16:19:47.926Z,22.50
2022-12-12T16:22:33.218Z,21.65
2022-12-12T16:25:22.614Z,24.08
2022-12-12T16:28:00.646Z,21.27
2022-12-12T16:30:28.517Z,22.45
2022-12-12T16:32:55.319Z,20.45
2022-12-12T16:35:24.746Z,20.58
2022-12-12T16:37:53.408Z,21.48
2022-12-12T16:40:21.234Z,23.57
2022-12-12T16:42:56.104Z,28.75
2022-12-12T16:45:23.028Z,39.33
2022-12-12T16:47:49.741Z,33.08
2022-12-12T16:50:16.642Z,26.48
2022-12-12T16:52:43.516Z,23.70
2022-12-12T16:55:17.979Z,18.27
2022-12-12T16:57:45.064Z,29.02
2022-12-12T17:00:12.969Z,30.08
2022-12-12T17:02:40.260Z,38.05
2022-12-12T17:05:12.898Z,37.63
2022-12-12T17:07:48.720Z,31.88
2022-12-12T17:10:16.264Z,33.95
2022-12-12T17:12:44.085Z,22.63
2022-12-12T17:15:21.480Z,21.75
2022-12-12T17:17:48.372Z,17.67
2022-12-12T17:20:15.569Z,17.63
2022-12-12T17:22:43.647Z,19.20
2022-12-12T17:25:11.513Z,25.60
2022-12-12T17:27:38.404Z,20.02
2022-12-12T17:30:07.791Z,23.17
2022-12-12T17:32:35.670Z,23.55
2022-12-12T17:35:03.717Z,34.70
2022-12-12T17:37:30.796Z,36.83
2022-12-12T17:39:58.369Z,37.70
2022-12-12T17:42:30.458Z,37.87
2022-12-12T17:44:58.269Z,41.65
2022-12-12T17:47:25.611Z,52.65
2022-12-12T17:49:52.524Z,51.35
2022-12-12T17:52:19.351Z,44.63
2022-12-12T17:55:53.473Z,39.50
2022-12-12T17:57:35.301Z,30.27
2022-12-12T18:00:02.274Z,26.27
2022-12-12T18:02:39.897Z,24.58
2022-12-12T18:05:09.746Z,27.30
2022-12-12T18:07:37.279Z,19.07
2022-12-12T18:10:04.624Z,19.80
2022-12-12T18:12:31.556Z,19.33
2022-12-12T18:14:58.260Z,23.23
2022-12-12T18:17:25.086Z,22.10
2022-12-12T18:19:51.828Z,24.30
2022-12-12T18:22:18.555Z,22.75
2022-12-12T18:24:45.253Z,16.17
2022-12-12T18:27:12.198Z,17.30
2022-12-12T18:29:38.938Z,18.85
2022-12-12T18:32:06.103Z,16.67
2022-12-12T18:34:33.025Z,18.08
2022-12-12T18:37:01.185Z,16.42
2022-12-12T18:39:27.927Z,18.02
2022-12-12T18:41:54.791Z,17.10
2022-12-12T18:44:21.523Z,15.83
2022-12-12T18:46:50.906Z,16.77
2022-12-12T18:49:18.560Z,18.75
2022-12-12T18:51:46.763Z,17.13
2022-12-12T18:54:16.000Z,18.10
2022-12-12T18:56:45.042Z,19.07
2022-12-12T18:59:12.150Z,19.10
2022-12-12T19:01:39.107Z,18.52
2022-12-12T19:04:11.735Z,15.93
2022-12-12T19:06:40.649Z,25.35
2022-12-12T19:09:15.521Z,30.23
2022-12-12T19:11:42.990Z,23.17
2022-12-12T19:14:11.656Z,24.23
2022-12-12T19:16:38.455Z,26.35
2022-12-12T19:19:06.419Z,26.70
2022-12-12T19:21:34.973Z,23.77
2022-12-12T19:24:03.098Z,19.58
2022-12-12T19:26:30.669Z,21.55
2022-12-12T19:29:04.621Z,15.70
2022-12-12T19:31:36.133Z,18.10
2022-12-12T19:34:05.205Z,16.10
2022-12-12T19:36:32.433Z,17.48
2022-12-12T19:39:03.022Z,22.52
2022-12-12T19:41:29.845Z,19.35
2022-12-12T19:43:59.276Z,22.92
2022-12-12T19:46:27.944Z,19.83
2022-12-12T19:48:59.615Z,17.25
2022-12-12T19:51:27.822Z,18.63
2022-12-12T19:53:59.554Z,24.42
2022-12-12T19:56:31.758Z,28.17
2022-12-12T19:58:59.363Z,25.63
2022-12-12T20:01:31.231Z,20.65
2022-12-12T20:04:05.434Z,22.27
2022-12-12T20:06:45.921Z,19.38
2022-12-12T20:09:18.597Z,21.70
2022-12-12T20:11:46.200Z,21.10
2022-12-12T20:14:19.251Z,16.33
2022-12-12T20:16:46.296Z,16.85
2022-12-12T20:19:13.832Z,19.08
2022-12-12T20:22:00.708Z,17.75
2022-12-12T20:24:29.004Z,16.77
2022-12-12T20:26:56.038Z,12.35
2022-12-12T20:29:23.515Z,14.95
2022-12-12T20:31:50.964Z,14.82
2022-12-12T20:34:21.748Z,10.57
2022-12-12T20:36:50.220Z,13.67
2022-12-12T20:39:22.298Z,14.43
2022-12-12T20:41:50.295Z,16.80
2022-12-12T20:44:18.281Z,14.75
2022-12-12T20:46:46.589Z,17.85
2022-12-12T20:49:16.515Z,14.60
2022-12-12T20:51:59.786Z,15.98
2022-12-12T20:54:29.059Z,18.33
2022-12-12T20:56:57.647Z,15.82
2022-12-12T20:59:25.594Z,17.33
2022-12-12T21:01:52.819Z,16.93
2022-12-12T21:04:19.968Z,17.55
2022-12-12T21:06:51.330Z,12.95
2022-12-12T21:09:24.239Z,14.32
2022-12-12T21:11:54.220Z,13.43
2022-12-12T21:14:21.244Z,13.73
2022-12-12T21:16:48.018Z,15.52
2022-12-12T21:19:15.999Z,14.73
2022-12-12T21:21:43.470Z,11.50
2022-12-12T21:24:14.864Z,14.93
2022-12-12T21:26:41.686Z,16.17
2022-12-12T21:29:08.929Z,16.38
2022-12-12T21:31:38.975Z,15.10
2022-12-12T21:34:06.779Z,13.95
2022-12-12T21:36:35.692Z,19.63
2022-12-12T21:39:04.787Z,14.37
2022-12-12T21:41:31.641Z,14.35
2022-12-12T21:44:01.067Z,28.80
2022-12-12T21:46:30.082Z,23.48
2022-12-12T21:49:16.842Z,18.20
2022-12-12T21:51:44.022Z,16.63
2022-12-12T21:54:13.535Z,13.52
2022-12-12T21:56:41.588Z,15.18
2022-12-12T21:59:09.882Z,13.60
2022-12-12T22:01:36.818Z,14.93
2022-12-12T22:04:03.685Z,19.33
2022-12-12T22:06:33.269Z,16.98
2022-12-12T22:09:01.763Z,16.73
2022-12-12T22:11:41.788Z,17.13
2022-12-12T22:14:21.600Z,12.82
2022-12-12T22:16:48.923Z,14.33
2022-12-12T22:19:16.719Z,12.90
2022-12-12T22:21:48.345Z,16.60
2022-12-12T22:24:17.577Z,13.68
2022-12-12T22:26:47.378Z,13.25
2022-12-12T22:29:16.903Z,13.53
2022-12-12T22:31:44.840Z,10.90
2022-12-12T22:34:15.561Z,13.75
2022-12-12T22:36:42.726Z,10.80
2022-12-12T22:39:14.623Z,12.07
2022-12-12T22:41:41.408Z,11.73
2022-12-12T22:44:08.252Z,13.90
2022-12-12T22:46:39.221Z,12.63
2022-12-12T22:49:11.457Z,11.02
2022-12-12T22:51:38.195Z,14.88
2022-12-12T22:54:05.831Z,11.53
2022-12-12T22:56:34.930Z,16.08
2022-12-12T22:59:02.028Z,21.25
2022-12-12T23:01:29.362Z,14.25
2022-12-12T23:03:56.584Z,12.80
2022-12-12T23:06:29.953Z,13.27
2022-12-12T23:08:57.975Z,14.45
2022-12-12T23:11:27.358Z,13.10
2022-12-12T23:13:58.846Z,14.85
2022-12-12T23:16:27.616Z,16.08
2022-12-12T23:18:54.717Z,13.77
2022-12-12T23:21:23.255Z,15.38
2022-12-12T23:23:50.884Z,20.08
2022-12-12T23:26:23.817Z,22.23
2022-12-12T23:28:51.724Z,19.55
2022-12-12T23:31:31.588Z,17.37
2022-12-12T23:34:01.820Z,23.73
2022-12-12T23:36:29.190Z,25.67
2022-12-12T23:38:58.171Z,18.27
2022-12-12T23:41:25.556Z,17.23
2022-12-12T23:43:52.947Z,18.37
2022-12-12T23:46:31.038Z,16.05
2022-12-12T23:49:06.634Z,23.77
2022-12-12T23:51:39.575Z,19.35
2022-12-12T23:54:09.374Z,16.55
2022-12-12T23:56:36.447Z,15.20
2022-12-12T23:59:04.050Z,19.55
